Terminal Aerodrome Forecast
Issued by NWS

Home | Current Version | Previous Version | Text Only | Print | Product List | Glossary On
Versions: 1 2 3 4 5 6 7 8 9 10 11 12 13 14 15 16 17 18 19 20 21 22 23 24 25 26 27 28 29 30
894
FTUS45 KGJT 110520
TAFCNY
TAF
KCNY 110520Z 1106/1206 27003KT P6SM FEW250
     FM111000 VRB03KT 5SM HZ SCT250
     FM111700 32004KT P6SM BKN250
     FM120200 VRB03KT P6SM BKN200=

USA.gov is the U.S. government's official web portal to all federal, state and local government web resources and services.